Huntersville, Minnesota
Current Conditions -  °F | °C
As of 3:53 AM on Sunday 21 Dec 2014 (Local Time) from KPKD Reporting Station
Haze Haze  
Wind Chill: 19°   Ceiling: 400
Heat Index: 30°   Visibility: 5mi
Dew Point: 28°   Wind: 15mph
Humidity: 92%   Direction: 180°S
Pressure: 29.84"   Gusts: NA
Location:  46.7591°N, 94.9748°W
Report Text: KPKD 210953Z AUTO 18013KT 5SM BR OVC004 M01/M02 A2984 RMK AO2 SLP123 T10111022
Loading
Personal Weather Stations






























Interactive Weather Map New forecast layout! Learn more

10-Day Weather Forecast

Advertisements
Track Severe Weather on mobile